Flight Track Log - Related Links

Times and Time Zones

All times are in EDT time to prevent confusion due to time zone crossing. See the SWA1841 flight status page for this flight to view local times or setup timezone preferences in your user account.

Time Position Orientation Groundspeed Altitude Reporting Facility
EDT Latitude Longitude Course Direction KTS MPH feet Rate Location/Type
Tue 05:40:31 PM 33.4333 -112.0167 260° West 164 189 1,700  Level Phoenix TRACON
Tue 05:40:46 PM 33.4308 -112.0342 260° West 158 182 2,300 2,526 Climbing Albuquerque Center
Tue 05:41:47 PM 33.4156 -112.0922 253° West 189 217 4,900 3,073 Climbing Albuquerque Center
Tue 05:42:49 PM 33.3922 -112.1578 247° West 222 255 8,600 2,758 Climbing Albuquerque Center
Tue 05:43:51 PM 33.3289 -112.1397 167° South 261 300 10,600 2,244 Climbing Albuquerque Center
Tue 05:44:52 PM 33.2478 -112.0978 157° South 314 361 13,200 3,122 Climbing Albuquerque Center
Tue 05:45:54 PM 33.1431 -112.0425 156° South 344 396 17,000 3,242 Climbing Albuquerque Center
Tue 05:46:56 PM 33.0508 -111.9933 156° South 361 415 19,900 2,585 Climbing Albuquerque Center
Tue 05:47:57 PM 32.9533 -111.9428 156° South 380 437 22,300 2,341 Climbing Albuquerque Center
Tue 05:48:59 PM 32.8656 -111.8614 142° Southeast 410 472 24,700 2,081 Climbing Albuquerque Center
Tue 05:50:01 PM 32.8058 -111.7361 120° Southeast 434 499 26,600 1,756 Climbing Albuquerque Center
Tue 05:51:02 PM 32.7442 -111.6028 119° Southeast 456 525 28,300 1,756 Climbing Albuquerque Center
Tue 05:52:04 PM 32.6642 -111.4339 119° Southeast 477 549 30,200 1,645 Climbing Albuquerque Center
Tue 05:53:06 PM 32.5994 -111.2994 120° Southeast 483 556 31,700 1,463 Climbing Albuquerque Center
Tue 05:54:07 PM 32.5322 -111.1561 119° Southeast 490 564 33,200 1,415 Climbing Albuquerque Center
Tue 05:55:09 PM 32.4644 -111.0131 119° Southeast 494 568 34,600 968 Climbing Albuquerque Center
Tue 05:56:11 PM 32.3944 -110.8697 120° Southeast 501 577 35,200 829 Climbing Albuquerque Center
Tue 05:57:12 PM 32.3481 -110.7028 108° East 524 603 36,300 1,220 Climbing Albuquerque Center
Tue 05:58:14 PM 32.3278 -110.5322 98° East 533 613 37,700 1,220 Climbing Albuquerque Center
Tue 05:59:15 PM 32.3056 -110.3233 97° East 534 615 38,800 634 Climbing Albuquerque Center
Tue 06:00:17 PM 32.2869 -110.1492 97° East 530 610 39,000 97 Climbing Albuquerque Center
Tue 06:01:19 PM 32.2683 -109.9797 97° East 527 606 39,000  Level Albuquerque Center
Tue 06:02:20 PM 32.2472 -109.8089 98° East 531 611 39,000  Level Albuquerque Center
Tue 06:03:22 PM 32.2300 -109.6414 97° East 525 604 39,000  Level Albuquerque Center
Tue 06:04:24 PM 32.2125 -109.4744 97° East 521 600 39,000  Level Albuquerque Center
Tue 06:05:25 PM 32.1900 -109.2758 98° East 518 596 39,000  Level Albuquerque Center
Tue 06:06:27 PM 32.1719 -109.1119 97° East 514 592 39,000  Level Albuquerque Center
Tue 06:07:29 PM 32.1525 -108.9467 98° East 515 593 39,000  Level Albuquerque Center
Tue 06:08:30 PM 32.1331 -108.7819 98° East 514 592 39,000  Level Albuquerque Center
Tue 06:09:32 PM 32.1139 -108.6181 98° East 514 592 39,000  Level Albuquerque Center
Tue 06:10:34 PM 32.0911 -108.4214 98° East 511 588 39,000  Level Albuquerque Center
Tue 06:11:35 PM 32.0719 -108.2611 98° East 506 582 39,000  Level Albuquerque Center
Tue 06:12:37 PM 32.0522 -108.1022 98° East 506 582 39,000 -48 Level Albuquerque Center
Tue 06:13:39 PM 32.0325 -107.9411 98° East 502 578 38,900  Descending Albuquerque Center
Tue 06:14:41 PM 32.0122 -107.7797 98° East 502 578 39,000 49 Climbing Albuquerque Center
Tue 06:15:42 PM 31.9892 -107.5878 98° East 499 574 39,000 -49 Level Albuquerque Center
Tue 06:16:44 PM 31.9686 -107.4281 99° East 498 573 38,900  Descending Albuquerque Center
Tue 06:17:46 PM 31.9483 -107.2678 98° East 499 574 39,000  Climbing Albuquerque Center
Tue 06:18:48 PM 31.9278 -107.1081 99° East 499 574 38,900 -48 Descending Albuquerque Center
Tue 06:19:50 PM 31.9067 -106.9500 99° East 496 571 38,900 49 Level Albuquerque Center
Tue 06:20:51 PM 31.8806 -106.7583 99° East 498 573 39,000 49 Climbing Albuquerque Center
Tue 06:21:53 PM 31.8597 -106.5972 99° East 502 578 39,000  Level Albuquerque Center
Tue 06:22:55 PM 31.8394 -106.4394 99° East 504 580 39,000  Level Albuquerque Center
Tue 06:23:57 PM 31.8164 -106.2772 99° East 505 581 39,000  Level Albuquerque Center
Tue 06:24:59 PM 31.7953 -106.1172 99° East 498 573 39,000  Level Albuquerque Center
Tue 06:26:00 PM 31.7764 -105.9564 98° East 498 573 39,000 -49 Level Albuquerque Center
Tue 06:27:02 PM 31.7533 -105.7631 98° East 498 573 38,900  Descending Albuquerque Center
Tue 06:28:04 PM 31.7333 -105.6083 99° East 482 555 39,000 48 Climbing Albuquerque Center
Tue 06:29:06 PM 31.7147 -105.4519 98° East 482 555 39,000 -48 Level Albuquerque Center
Tue 06:30:08 PM 31.6958 -105.2961 98° East 480 552 38,900  Descending Albuquerque Center
Tue 06:31:09 PM 31.6764 -105.1406 98° East 480 552 39,000 49 Climbing Albuquerque Center
Tue 06:32:11 PM 31.6572 -104.9850 98° East 480 552 39,000  Level Albuquerque Center
Tue 06:33:13 PM 31.6369 -104.8303 99° East 478 550 39,000 -48 Level Albuquerque Center
Tue 06:34:15 PM 31.6136 -104.6411 98° East 483 556 38,900 -48 Descending Albuquerque Center
Tue 06:35:17 PM 31.5931 -104.4836 99° East 486 559 38,900 49 Level Albuquerque Center
Tue 06:36:18 PM 31.5719 -104.3244 99° East 488 562 39,000 49 Climbing Albuquerque Center
Tue 06:37:20 PM 31.5506 -104.1650 99° East 491 565 39,000  Level Albuquerque Center
Tue 06:38:22 PM 31.5294 -104.0061 99° East 492 566 39,000  Level Albuquerque Center
Tue 06:39:24 PM 31.5078 -103.8464 99° East 494 568 39,000  Level Albuquerque Center
Tue 06:40:25 PM 31.4875 -103.6928 99° East 490 564 39,000  Level Albuquerque Center
Tue 06:41:27 PM 31.4589 -103.5022 100° East 492 566 39,000  Level Albuquerque Center
Tue 06:42:29 PM 31.4408 -103.3447 98° East 491 565 39,000  Level Albuquerque Center
Tue 06:43:31 PM 31.4219 -103.1875 98° East 489 563 39,000  Level Albuquerque Center
Tue 06:44:33 PM 31.4014 -103.0311 99° East 489 563 39,000  Level Albuquerque Center
Tue 06:45:34 PM 31.3814 -102.8744 98° East 487 560 39,000  Level Albuquerque Center
Tue 06:46:36 PM 31.3614 -102.7169 98° East 488 562 39,000  Level Albuquerque Center
Tue 06:47:38 PM 31.3408 -102.5597 99° East 489 563 39,000  Level Albuquerque Center
Tue 06:48:40 PM 31.3156 -102.3664 99° East 500 575 39,000  Level Albuquerque Center
Tue 06:49:41 PM 31.2947 -102.2125 99° East 489 563 39,000  Level Albuquerque Center
Tue 06:50:43 PM 31.2744 -102.0561 99° East 487 560 39,000  Level Albuquerque Center
Tue 06:51:45 PM 31.2525 -101.8850 98° East 486 559 39,000  Level Albuquerque Center
Tue 06:52:47 PM 31.2311 -101.7275 99° East 488 562 39,000  Level Albuquerque Center
Tue 06:54:15 PM 31.2014 -101.5083 99° East 491 565 39,000  Level Houston Center
Tue 06:55:17 PM 31.1806 -101.3511 99° East 491 565 39,000  Level Houston Center
Tue 06:56:19 PM 31.1586 -101.2036 100° East 486 559 39,000  Level Houston Center
Tue 06:57:21 PM 31.1333 -101.0139 99° East 491 565 39,000  Level Houston Center
Tue 06:58:24 PM 31.1100 -100.8597 100° East 485 558 39,000  Level Houston Center
Tue 06:59:26 PM 31.0881 -100.7042 99° East 485 558 39,000  Level Houston Center
Tue 07:00:28 PM 31.0664 -100.5500 99° East 483 556 39,000  Level Houston Center
Tue 07:01:30 PM 31.0447 -100.3972 99° East 481 554 39,000  Level Houston Center
Tue 07:02:32 PM 31.0217 -100.2433 100° East 481 554 39,000  Level Houston Center
Tue 07:03:34 PM 30.9933 -100.0572 100° East 485 558 39,000  Level Houston Center
Tue 07:04:36 PM 30.9692 -99.9014 100° East 487 560 39,000  Level Houston Center
Tue 07:05:38 PM 30.9467 -99.7475 100° East 484 557 39,000  Level Houston Center
Tue 07:06:40 PM 30.9225 -99.5928 100° East 485 558 39,000  Level Houston Center
Tue 07:07:42 PM 30.8986 -99.4392 100° East 483 556 39,000  Level Houston Center
Tue 07:08:44 PM 30.8750 -99.2856 100° East 481 554 39,000  Level Houston Center
Tue 07:09:46 PM 30.8461 -99.1044 100° East 480 552 39,000 -484 Level Houston Center
Tue 07:10:48 PM 30.8211 -98.9508 101° East 480 552 38,000 -919 Descending Houston Center
Tue 07:11:50 PM 30.7972 -98.8000 100° East 473 544 37,100 -919 Descending Houston Center
Tue 07:12:52 PM 30.7819 -98.6472 97° East 470 541 36,100 -968 Descending Houston Center
Tue 07:13:54 PM 30.7686 -98.4953 96° East 470 541 35,100 -532 Descending Houston Center
Tue 07:14:56 PM 30.7539 -98.3436 96° East 469 540 35,000 -48 Descending Houston Center
Tue 07:15:58 PM 30.7400 -98.1903 96° East 473 544 35,000  Level Houston Center
Tue 07:17:00 PM 30.7228 -98.0133 96° East 471 542 35,000  Level Houston Center
Tue 07:18:02 PM 30.7058 -97.8606 97° East 473 544 35,000 -290 Level Houston Center
Tue 07:19:04 PM 30.6908 -97.7078 96° East 475 547 34,400 -774 Descending Houston Center
Tue 07:20:06 PM 30.6764 -97.5567 96° East 470 541 33,400 -1,161 Descending Houston Center
Tue 07:21:08 PM 30.6619 -97.4097 96° East 462 532 32,000 -1,839 Descending Houston Center
Tue 07:22:10 PM 30.6442 -97.2433 97° East 446 513 29,600 -2,468 Descending Houston Center
Tue 07:23:12 PM 30.6006 -97.1156 112° Southeast 430 495 26,900 -1,839 Descending Houston Center
Tue 07:24:14 PM 30.5481 -96.9911 116° Southeast 428 493 25,800 -1,597 Descending Houston Center
Tue 07:25:16 PM 30.4964 -96.8714 117° Southeast 416 479 23,600 -2,081 Descending Houston Center
Tue 07:26:18 PM 30.4450 -96.7531 117° Southeast 409 471 21,500 -2,081 Descending Houston Center
Tue 07:27:20 PM 30.3953 -96.6394 117° Southeast 396 456 19,300 -2,081 Descending Houston Center
Tue 07:28:22 PM 30.3453 -96.5272 117° Southeast 390 449 17,200 -2,313 Descending Houston Center
Tue 07:28:43 PM 30.3222 -96.4708 115° Southeast 384 442 16,100 -2,419 Descending Houston Center
Tue 07:29:24 PM 30.2897 -96.3986 118° Southeast 381 438 14,700 -2,129 Descending Houston Center
Tue 07:29:45 PM 30.2756 -96.3647 116° Southeast 380 437 13,900 -2,129 Descending Houston Center
Tue 07:30:26 PM 30.2419 -96.2903 118° Southeast 376 433 12,500 -2,164 Descending Houston Center
Tue 07:30:46 PM 30.2242 -96.2519 118° Southeast 375 432 11,700 -1,452 Descending Houston Center
Tue 07:31:28 PM 30.1872 -96.1947 127° Southeast 358 412 11,000 -689 Descending Houston Center
Tue 07:31:47 PM 30.1572 -96.1797 157° South 324 373 11,000  Level Houston Center
Tue 07:32:30 PM 30.0981 -96.1492 156° South 330 380 11,000  Level Houston Center
Tue 07:32:48 PM 30.0694 -96.1342 156° South 343 395 11,000  Level Houston Center
Tue 07:33:32 PM 30.0097 -96.1025 155° Southeast 343 395 11,000  Level Houston Center
Tue 07:33:49 PM 29.9836 -96.0883 155° Southeast 347 399 11,000  Level Houston Center
Tue 07:34:34 PM 29.9219 -96.0553 155° Southeast 347 399 11,000  Level Houston Center
Tue 07:34:50 PM 29.8914 -96.0386 155° Southeast 344 396 11,000  Level Houston Center
Tue 07:35:36 PM 29.8311 -96.0078 156° South 346 398 11,000 -224 Level Houston Center
Tue 07:36:37 PM 29.7569 -95.9567 149° Southeast 319 367 10,600 -395 Descending Houston Center
Tue 07:36:52 PM 29.7394 -95.9333 131° Southeast 281 323 10,500 -387 Descending Houston Center
Tue 07:37:39 PM 29.7061 -95.8942 134° Southeast 273 314 10,200 -716 Descending Houston Center
Tue 07:38:41 PM 29.6611 -95.8367 132° Southeast 246 283 9,200 -1,113 Descending Houston Center
Tue 07:39:43 PM 29.6289 -95.7572 115° Southeast 244 281 7,900 -1,065 Descending Houston Center
Tue 07:40:45 PM 29.6406 -95.6806 80° East 242 278 7,000 -1,122 Descending Houston Center
Tue 07:41:46 PM 29.6556 -95.6039 77° East 231 266 5,600 -1,180 Descending Houston Center
Tue 07:42:47 PM 29.6922 -95.5444 55° Northeast 228 262 4,600 -984 Descending Houston Center
Tue 07:43:48 PM 29.7369 -95.5031 39° Northeast 193 222 3,600 -1,000 Descending Houston Center
Tue 07:44:53 PM 29.7711 -95.4692 41° Northeast 189 217 2,500 -756 Descending Houston Center
Tue 07:45:55 PM 29.7608 -95.4189 103° East 172 198 2,000 -252 Descending Houston Center
Tue 07:46:52 PM 29.7275 -95.3767 132° Southeast 146 168 2,000 -254 Level Houston Center
Tue 07:47:53 PM 29.6992 -95.3439 135° Southeast 133 153 1,500 -590 Descending Houston Center
Tue 07:48:54 PM 29.6756 -95.3156 134° Southeast 125 144 800 -646 Descending Houston Center
Tue 07:50:03 PM 29.6494 -95.2844 134° Southeast 131 151 100 -609 Descending Houston Center
Tue 07:52:00 PM 29.6454 -95.2789 115° Southeast  Level Estimated

Login

Don't have an account? Register now (free) for customized features, flight alerts, and more!